Time;durP1;ratioP1;P1;durP2;ratioP2;P2;SDS_P1;SDS_P2;PMS_P1;PMS_P2;Temp;Humidity;BMP_temperature;BMP_pressure;BME280_temperature;BME280_humidity;BME280_pressure;Samples;Min_cycle;Max_cycle;Signal;HPM_P1;HPM_P2
2022/06/14 00:00:53;;;;;;;4.80;4.47;;;14.30;99.90;;;;;;4981843;28;20441;-59
2022/06/14 00:02:20;;;;;;;4.70;4.37;;;14.30;99.90;;;;;;4964422;28;20198;-57
2022/06/14 00:04:45;;;;;;;4.70;4.30;;;14.20;99.90;;;;;;4973266;28;20939;-55
2022/06/14 00:07:11;;;;;;;4.73;4.33;;;14.10;99.90;;;;;;4965586;28;20695;-59
2022/06/14 00:09:36;;;;;;;4.50;4.20;;;14.10;99.90;;;;;;4973918;28;20181;-58
2022/06/14 00:12:02;;;;;;;4.50;4.20;;;14.00;99.90;;;;;;4976600;28;20197;-55
2022/06/14 00:14:28;;;;;;;4.57;4.13;;;13.90;99.90;;;;;;4978774;28;20179;-59
2022/06/14 00:16:53;;;;;;;5.77;4.50;;;13.90;99.90;;;;;;4973223;28;20526;-58
2022/06/14 00:19:19;;;;;;;5.10;4.60;;;13.90;99.90;;;;;;4972641;28;20245;-57
2022/06/14 00:21:45;;;;;;;4.57;4.27;;;13.80;99.90;;;;;;4970986;28;20189;-58
2022/06/14 00:24:10;;;;;;;5.03;4.63;;;13.70;99.90;;;;;;4970343;28;20251;-57
2022/06/14 00:26:36;;;;;;;5.27;4.87;;;13.70;99.90;;;;;;4978409;28;20219;-58
2022/06/14 00:29:01;;;;;;;4.43;4.07;;;13.60;99.90;;;;;;4971290;28;20195;-58
2022/06/14 00:31:29;;;;;;;4.67;4.27;;;13.50;99.90;;;;;;4966031;28;20265;-56
2022/06/14 00:33:54;;;;;;;5.10;4.67;;;13.50;99.90;;;;;;4962347;28;20197;-58
2022/06/14 00:36:33;;;;;;;9.27;4.93;;;13.40;99.90;;;;;;4981031;28;20786;-58
2022/06/14 00:39:03;;;;;;;4.43;4.03;;;13.40;99.90;;;;;;4965792;28;20212;-58
2022/06/14 00:41:39;;;;;;;6.53;4.40;;;13.30;99.90;;;;;;4961812;28;20435;-57
2022/06/14 00:44:11;;;;;;;4.60;4.20;;;13.20;99.90;;;;;;4972955;28;20802;-57
2022/06/14 00:47:06;;;;;;;5.07;4.67;;;13.10;99.90;;;;;;4965974;28;20491;-57
2022/06/14 00:49:48;;;;;;;6.13;5.50;;;13.00;99.90;;;;;;4980512;28;20445;-56
2022/06/14 00:52:18;;;;;;;5.90;4.57;;;12.90;99.90;;;;;;4967659;28;20436;-57
2022/06/14 00:54:48;;;;;;;6.33;4.40;;;12.90;99.90;;;;;;4969903;28;20432;-58
2022/06/14 00:57:24;;;;;;;6.30;4.50;;;12.80;99.90;;;;;;4967989;28;20495;-57
2022/06/14 00:59:56;;;;;;;5.47;4.87;;;12.70;99.90;;;;;;4969933;28;20878;-57
2022/06/14 01:02:35;;;;;;;5.10;4.63;;;12.60;99.90;;;;;;4956068;28;20444;-57
2022/06/14 01:05:07;;;;;;;5.03;4.63;;;12.60;99.90;;;;;;4968436;28;20432;-57
2022/06/14 01:07:39;;;;;;;5.10;4.70;;;12.50;99.90;;;;;;4974226;28;20464;-57
2022/06/14 01:10:32;;;;;;;5.53;4.23;;;12.50;99.90;;;;;;4973589;28;20445;-57
2022/06/14 01:13:01;;;;;;;4.47;4.07;;;12.50;99.90;;;;;;4952614;28;20513;-58
2022/06/14 01:15:30;;;;;;;5.10;4.60;;;12.50;99.90;;;;;;4961312;28;20428;-58
2022/06/14 01:18:04;;;;;;;4.53;4.23;;;12.50;99.90;;;;;;4966681;28;20451;-56
2022/06/14 01:20:31;;;;;;;4.63;4.23;;;12.40;99.90;;;;;;4968658;28;20476;-58
2022/06/14 01:22:57;;;;;;;4.37;3.97;;;12.40;99.90;;;;;;4970603;28;20428;-57
2022/06/14 01:25:26;;;;;;;5.00;4.50;;;12.40;99.90;;;;;;4965307;28;20429;-58
2022/06/14 01:27:53;;;;;;;5.00;4.60;;;12.40;99.90;;;;;;4971022;28;20456;-58
2022/06/14 01:30:27;;;;;;;4.87;4.47;;;12.40;99.90;;;;;;4969418;28;20448;-51
2022/06/14 01:33:00;;;;;;;4.80;4.40;;;12.40;99.90;;;;;;4959375;28;20963;-58
2022/06/14 01:35:32;;;;;;;4.80;4.37;;;12.40;99.90;;;;;;4970732;28;21088;-58
2022/06/14 01:37:59;;;;;;;5.63;5.13;;;12.30;99.90;;;;;;4957774;28;20459;-55
2022/06/14 01:40:50;;;;;;;5.30;4.80;;;12.20;99.90;;;;;;4970667;28;20525;-58
2022/06/14 01:43:34;;;;;;;5.73;4.50;;;12.10;99.90;;;;;;4966708;28;20539;-59
2022/06/14 01:46:11;;;;;;;5.13;4.73;;;12.00;99.90;;;;;;4956894;28;20450;-58
2022/06/14 01:52:08;;;;;;;5.20;4.70;;;12.00;99.90;;;;;;4968164;28;20427;-56
2022/06/14 01:54:51;;;;;;;5.43;4.93;;;11.90;99.90;;;;;;4970743;28;20488;-57
2022/06/14 01:57:22;;;;;;;6.47;5.00;;;11.90;99.90;;;;;;4965046;28;20942;-57
2022/06/14 02:00:05;;;;;;;4.90;4.50;;;11.80;99.90;;;;;;4969783;28;20436;-58
2022/06/14 02:02:51;;;;;;;5.30;4.80;;;11.70;99.90;;;;;;4956195;28;20437;-58
2022/06/14 02:05:29;;;;;;;5.53;5.00;;;11.70;99.90;;;;;;4951433;29;20760;-55
2022/06/14 02:08:10;;;;;;;4.93;4.53;;;11.60;99.90;;;;;;4957371;28;20483;-57
2022/06/14 02:10:51;;;;;;;7.23;4.60;;;11.60;99.90;;;;;;4951088;28;20413;-58
2022/06/14 02:13:27;;;;;;;5.57;4.70;;;11.50;99.90;;;;;;4968186;28;20435;-54
2022/06/14 02:15:57;;;;;;;5.30;4.80;;;11.50;99.90;;;;;;4960847;28;20781;-52
2022/06/14 02:18:42;;;;;;;5.50;4.70;;;11.40;99.90;;;;;;4971771;28;20451;-57
2022/06/14 02:21:19;;;;;;;5.20;4.63;;;11.40;99.90;;;;;;4967235;28;20416;-58
2022/06/14 02:23:48;;;;;;;4.80;4.30;;;11.40;99.90;;;;;;4963282;28;21342;-58
2022/06/14 02:26:23;;;;;;;5.43;4.93;;;11.40;99.90;;;;;;4968784;28;20493;-58
2022/06/14 02:29:09;;;;;;;7.53;5.07;;;11.40;99.90;;;;;;4967072;28;20778;-58
2022/06/14 02:31:43;;;;;;;5.57;5.07;;;11.40;99.90;;;;;;4971673;28;20905;-59
2022/06/14 02:34:20;;;;;;;5.40;4.90;;;11.40;99.90;;;;;;4959569;28;20436;-57
2022/06/14 02:36:56;;;;;;;5.57;5.07;;;11.40;99.90;;;;;;4973883;28;20805;-57
2022/06/14 02:39:32;;;;;;;5.10;4.70;;;11.40;99.90;;;;;;4968798;28;20441;-57
2022/06/14 02:42:21;;;;;;;5.20;4.70;;;11.40;99.90;;;;;;4973824;28;20486;-58
2022/06/14 02:44:54;;;;;;;8.97;5.97;;;11.40;99.90;;;;;;4965910;28;20477;-58
2022/06/14 02:47:34;;;;;;;5.20;4.80;;;11.40;99.90;;;;;;4976083;28;20821;-57
2022/06/14 02:50:10;;;;;;;5.30;4.87;;;11.30;99.90;;;;;;4971776;28;20487;-51
2022/06/14 02:53:05;;;;;;;6.20;5.60;;;11.30;99.90;;;;;;4968801;28;20424;-47
2022/06/14 02:55:39;;;;;;;6.10;5.13;;;11.30;99.90;;;;;;4961710;28;20951;-48
2022/06/14 02:58:19;;;;;;;5.50;5.00;;;11.30;99.90;;;;;;4969405;28;21101;-52
2022/06/14 03:00:52;;;;;;;5.47;5.07;;;11.30;99.90;;;;;;4970549;28;20954;-48
2022/06/14 03:03:24;;;;;;;6.47;5.80;;;11.20;99.90;;;;;;4961415;28;20432;-50
2022/06/14 03:05:56;;;;;;;5.57;5.07;;;11.20;99.90;;;;;;4971963;28;20463;-55
2022/06/14 03:08:29;;;;;;;6.27;5.63;;;11.20;99.90;;;;;;4969469;28;20875;-51
2022/06/14 03:11:20;;;;;;;5.50;5.00;;;11.20;99.90;;;;;;4973299;28;20490;-53
2022/06/14 03:13:58;;;;;;;6.53;5.20;;;11.20;99.90;;;;;;4957721;28;20523;-54
2022/06/14 03:16:44;;;;;;;5.60;5.13;;;11.10;99.90;;;;;;4972904;28;20404;-51
2022/06/14 03:19:22;;;;;;;5.33;4.93;;;11.10;99.90;;;;;;4967084;28;20475;-53
2022/06/14 03:21:59;;;;;;;5.77;5.27;;;11.10;99.90;;;;;;4988079;28;20475;-52
2022/06/14 03:24:34;;;;;;;5.43;4.93;;;11.10;99.90;;;;;;4963916;28;21006;-48
2022/06/14 03:27:23;;;;;;;7.03;5.90;;;11.10;99.90;;;;;;4966592;28;20530;-51
2022/06/14 03:30:25;;;;;;;6.40;5.77;;;11.00;99.90;;;;;;4967457;28;20542;-53
2022/06/14 03:33:23;;;;;;;6.00;5.33;;;11.10;99.90;;;;;;4962117;28;20439;-50
2022/06/14 03:35:52;;;;;;;6.53;5.17;;;11.10;99.90;;;;;;4972650;28;20412;-50
2022/06/14 03:38:35;;;;;;;8.37;5.33;;;11.20;99.90;;;;;;4968991;28;20887;-54
2022/06/14 03:41:01;;;;;;;6.10;5.50;;;11.20;99.90;;;;;;4970730;28;20428;-51
2022/06/14 03:43:29;;;;;;;6.20;5.60;;;11.30;99.90;;;;;;4968041;28;22430;-52
2022/06/14 03:46:12;;;;;;;6.53;5.83;;;11.40;99.90;;;;;;4967198;28;20937;-50
2022/06/14 03:48:41;;;;;;;6.00;5.50;;;11.40;99.90;;;;;;4971406;28;20433;-48
2022/06/14 03:51:40;;;;;;;6.07;5.50;;;11.50;99.90;;;;;;4971099;28;20464;-51
2022/06/14 03:54:21;;;;;;;8.40;6.10;;;11.50;99.90;;;;;;4970925;28;20939;-52
2022/06/14 03:57:35;;;;;;;7.90;5.67;;;11.60;99.90;;;;;;4968959;28;20538;-51
2022/06/14 04:00:03;;;;;;;8.10;5.30;;;11.60;99.90;;;;;;4985157;28;20482;-50
2022/06/14 04:02:55;;;;;;;6.97;6.37;;;11.70;99.90;;;;;;4972023;28;20433;-49
2022/06/14 04:05:47;;;;;;;6.73;5.30;;;11.70;99.90;;;;;;4970409;28;20440;-52
2022/06/14 04:08:31;;;;;;;7.20;5.07;;;11.80;99.90;;;;;;4968477;28;20464;-50
2022/06/14 04:11:09;;;;;;;5.53;4.90;;;11.80;99.90;;;;;;4968484;28;20468;-48
2022/06/14 04:13:45;;;;;;;5.50;5.00;;;11.90;99.90;;;;;;4971992;28;20965;-48
2022/06/14 04:16:26;;;;;;;5.27;4.77;;;11.90;99.90;;;;;;4971317;28;20442;-51
2022/06/14 04:19:07;;;;;;;5.17;4.67;;;12.00;99.90;;;;;;4976714;28;20507;-52
2022/06/14 04:22:26;;;;;;;6.33;5.23;;;12.00;99.90;;;;;;4963279;28;20492;-50
2022/06/14 04:25:15;;;;;;;5.30;4.90;;;12.10;99.90;;;;;;4961579;28;20793;-53
2022/06/14 04:28:10;;;;;;;5.47;4.60;;;12.10;99.90;;;;;;4950812;28;20592;-48
2022/06/14 04:30:45;;;;;;;8.63;5.13;;;12.20;99.90;;;;;;4959259;28;20931;-54
2022/06/14 04:33:17;;;;;;;4.50;4.10;;;12.30;99.90;;;;;;4945990;28;20444;-52
2022/06/14 04:36:17;;;;;;;4.90;4.50;;;12.40;99.90;;;;;;4955659;28;20953;-51
2022/06/14 04:39:04;;;;;;;5.67;5.10;;;12.50;99.90;;;;;;4950421;28;20460;-51
2022/06/14 04:42:01;;;;;;;5.50;4.50;;;12.70;99.90;;;;;;4955112;28;20417;-53
2022/06/14 04:44:40;;;;;;;4.63;4.23;;;12.80;99.90;;;;;;4957820;28;20436;-51
2022/06/14 04:47:19;;;;;;;4.80;4.40;;;12.90;99.90;;;;;;4958249;28;20466;-52
2022/06/14 04:49:48;;;;;;;5.03;4.53;;;12.90;99.90;;;;;;4964447;28;21108;-52
2022/06/14 04:52:16;;;;;;;7.20;5.20;;;13.10;99.90;;;;;;4970070;28;20448;-54
2022/06/14 04:54:55;;;;;;;5.83;4.70;;;13.10;99.90;;;;;;4969234;28;20471;-50
2022/06/14 04:57:39;;;;;;;5.10;4.70;;;13.20;99.90;;;;;;4967658;28;20486;-52
2022/06/14 05:00:12;;;;;;;5.10;4.47;;;13.00;99.90;;;;;;4953844;28;20417;-53
2022/06/14 05:03:00;;;;;;;6.27;5.00;;;13.00;99.90;;;;;;4970199;28;20899;-54
2022/06/14 05:05:29;;;;;;;5.03;3.90;;;13.10;99.90;;;;;;4971143;28;20424;-50
2022/06/14 05:08:17;;;;;;;4.40;3.90;;;13.30;99.90;;;;;;4965283;28;20461;-50
2022/06/14 05:11:18;;;;;;;4.67;4.00;;;13.30;99.90;;;;;;4954529;28;20465;-55
2022/06/14 05:14:18;;;;;;;5.10;4.27;;;13.20;99.90;;;;;;4967754;28;20454;-47
2022/06/14 05:16:51;;;;;;;3.90;3.50;;;13.30;99.90;;;;;;4969665;28;20894;-52
2022/06/14 05:19:30;;;;;;;6.67;4.03;;;13.30;99.90;;;;;;4979787;28;20448;-50
2022/06/14 05:22:08;;;;;;;5.40;4.10;;;13.30;99.90;;;;;;4968889;28;20478;-54
2022/06/14 05:24:35;;;;;;;5.67;3.60;;;13.20;99.90;;;;;;4964109;28;20437;-51
2022/06/14 05:27:28;;;;;;;4.43;4.03;;;13.30;99.90;;;;;;4960851;28;20986;-49
2022/06/14 05:30:26;;;;;;;4.30;3.90;;;13.30;99.90;;;;;;4975746;28;20462;-52
2022/06/14 05:33:12;;;;;;;7.67;3.63;;;13.30;99.90;;;;;;4950815;28;20467;-51
2022/06/14 05:35:45;;;;;;;4.57;3.50;;;13.40;99.90;;;;;;4964679;28;20445;-46
2022/06/14 05:38:20;;;;;;;5.67;4.23;;;13.70;99.90;;;;;;4963808;28;20462;-49
2022/06/14 05:41:11;;;;;;;4.07;3.70;;;13.90;99.90;;;;;;4968292;28;20416;-54
2022/06/14 05:43:44;;;;;;;3.80;3.50;;;14.40;99.90;;;;;;4953741;28;20437;-51
2022/06/14 05:46:19;;;;;;;4.20;3.80;;;14.40;99.90;;;;;;4969333;28;20852;-51
2022/06/14 05:49:00;;;;;;;4.00;3.70;;;14.60;99.90;;;;;;4970364;28;20440;-52
2022/06/14 05:51:51;;;;;;;4.30;3.77;;;14.70;99.90;;;;;;4957801;28;20428;-49
2022/06/14 05:54:19;;;;;;;4.50;4.20;;;14.70;99.90;;;;;;4970428;28;20459;-48
2022/06/14 05:56:54;;;;;;;4.77;3.90;;;14.80;99.90;;;;;;4964626;28;20819;-52
2022/06/14 05:59:24;;;;;;;4.10;3.70;;;15.00;99.90;;;;;;4956935;28;21358;-50
2022/06/14 06:02:06;;;;;;;4.70;3.90;;;15.30;99.90;;;;;;4970095;28;20420;-51
2022/06/14 06:05:05;;;;;;;4.33;3.93;;;15.40;99.90;;;;;;4958672;28;20434;-53
2022/06/14 06:07:36;;;;;;;4.90;4.20;;;15.50;99.90;;;;;;4983963;28;20533;-51
2022/06/14 06:10:05;;;;;;;6.00;4.00;;;15.80;99.80;;;;;;4967616;28;20861;-48
2022/06/14 06:12:35;;;;;;;3.73;3.33;;;15.90;98.10;;;;;;4974078;28;20420;-53
2022/06/14 06:15:20;;;;;;;4.47;4.10;;;16.10;98.10;;;;;;4970237;28;20434;-53
2022/06/14 06:18:03;;;;;;;4.77;4.00;;;16.20;97.40;;;;;;4974119;28;20456;-51
2022/06/14 06:20:47;;;;;;;4.27;3.97;;;16.30;97.70;;;;;;4966227;28;20517;-49
2022/06/14 06:23:30;;;;;;;4.47;4.17;;;16.40;96.20;;;;;;4961973;28;20428;-53
2022/06/14 06:25:56;;;;;;;4.67;4.20;;;16.50;96.00;;;;;;4967510;28;20429;-52
2022/06/14 06:28:25;;;;;;;5.33;4.10;;;16.70;94.30;;;;;;4973940;28;20472;-48
2022/06/14 06:31:00;;;;;;;6.80;4.37;;;16.60;93.80;;;;;;4968709;28;20801;-51
2022/06/14 06:33:29;;;;;;;5.07;4.67;;;16.60;94.00;;;;;;4982568;28;20447;-52
2022/06/14 06:36:28;;;;;;;5.70;4.57;;;16.60;94.20;;;;;;4971603;28;20429;-51
2022/06/14 06:39:24;;;;;;;4.40;4.10;;;16.60;94.90;;;;;;4972670;28;20429;-49
2022/06/14 06:41:55;;;;;;;4.47;4.07;;;16.80;95.00;;;;;;4959533;28;21162;-54
2022/06/14 06:44:36;;;;;;;4.37;4.03;;;16.90;94.30;;;;;;4972182;28;20427;-51
2022/06/14 06:47:20;;;;;;;5.40;4.70;;;17.00;93.80;;;;;;4972250;28;20469;-51
2022/06/14 06:49:52;;;;;;;4.40;4.00;;;17.00;91.90;;;;;;4973405;28;20439;-53
2022/06/14 06:52:23;;;;;;;4.97;4.57;;;16.80;92.50;;;;;;4973267;28;20788;-48
2022/06/14 06:54:58;;;;;;;4.60;4.20;;;16.80;92.70;;;;;;4974769;28;20449;-49
2022/06/14 06:57:27;;;;;;;4.60;3.60;;;16.80;93.80;;;;;;4969327;28;20481;-48
2022/06/14 06:59:55;;;;;;;4.73;4.10;;;16.90;93.40;;;;;;4974768;28;20477;-50
2022/06/14 07:02:28;;;;;;;6.27;3.80;;;17.00;93.30;;;;;;4973182;28;20435;-53
2022/06/14 07:05:05;;;;;;;6.90;4.33;;;17.10;91.90;;;;;;4963430;28;20444;-50
2022/06/14 07:07:43;;;;;;;7.57;3.70;;;17.20;92.50;;;;;;4972880;28;20555;-51
2022/06/14 07:10:22;;;;;;;5.17;3.60;;;17.30;91.90;;;;;;4972049;28;20481;-51
2022/06/14 07:12:54;;;;;;;4.73;4.33;;;17.50;91.20;;;;;;4972903;28;21113;-49
2022/06/14 07:15:41;;;;;;;5.00;4.50;;;17.50;91.20;;;;;;4955843;28;20436;-49
2022/06/14 07:18:15;;;;;;;4.87;4.37;;;17.60;90.40;;;;;;4968453;28;20450;-48
2022/06/14 07:20:53;;;;;;;5.47;4.70;;;17.60;91.10;;;;;;4971494;28;20429;-50
2022/06/14 07:23:25;;;;;;;4.97;4.20;;;17.70;90.50;;;;;;4969972;28;20554;-53
2022/06/14 07:26:04;;;;;;;5.27;4.83;;;17.90;91.50;;;;;;4975670;28;20514;-49
2022/06/14 07:28:35;;;;;;;5.00;4.20;;;18.10;88.80;;;;;;4972432;28;20916;-49
2022/06/14 07:31:06;;;;;;;5.43;4.53;;;18.20;87.30;;;;;;4970952;28;20531;-52
2022/06/14 07:33:34;;;;;;;3.90;3.60;;;18.40;86.10;;;;;;4972972;28;20482;-48
2022/06/14 07:36:14;;;;;;;4.33;4.03;;;18.40;80.70;;;;;;4971895;28;20440;-49
2022/06/14 07:39:01;;;;;;;4.60;4.30;;;18.30;78.90;;;;;;4972748;28;20459;-47
2022/06/14 07:41:36;;;;;;;5.60;4.77;;;18.10;79.10;;;;;;4971881;28;20452;-48
2022/06/14 07:44:27;;;;;;;7.73;4.23;;;18.10;78.20;;;;;;4972776;28;20507;-51
2022/06/14 07:47:01;;;;;;;5.67;4.53;;;18.10;77.70;;;;;;4968002;28;20720;-51
2022/06/14 07:49:47;;;;;;;4.77;4.47;;;18.20;78.70;;;;;;4972387;28;20424;-49
2022/06/14 07:52:33;;;;;;;4.90;4.50;;;18.20;77.40;;;;;;4969420;28;20536;-50
2022/06/14 07:55:09;;;;;;;5.07;4.57;;;18.20;79.70;;;;;;5003136;28;20462;-49
2022/06/14 07:57:42;;;;;;;4.90;4.50;;;18.30;77.70;;;;;;4959251;28;20508;-50
2022/06/14 08:03:22;;;;;;;5.20;4.43;;;18.10;78.60;;;;;;4963815;28;20491;-49
2022/06/14 08:05:51;;;;;;;4.80;4.50;;;17.90;77.80;;;;;;4971738;28;20423;-51
2022/06/14 08:08:23;;;;;;;4.80;4.40;;;17.80;80.50;;;;;;4964626;28;20637;-51
2022/06/14 08:10:53;;;;;;;5.00;4.60;;;17.90;78.60;;;;;;4972021;28;20439;-49
2022/06/14 08:13:30;;;;;;;5.50;4.40;;;18.00;78.90;;;;;;4970936;28;20440;-51
2022/06/14 08:16:00;;;;;;;4.87;4.27;;;18.00;76.00;;;;;;4963545;28;20432;-48
2022/06/14 08:18:26;;;;;;;4.00;3.80;;;17.90;76.50;;;;;;4955079;28;20904;-50
2022/06/14 08:21:00;;;;;;;4.00;3.70;;;17.90;75.20;;;;;;4980242;28;20434;-49
2022/06/14 08:23:57;;;;;;;5.93;4.27;;;18.00;73.00;;;;;;4971213;28;20447;-49
2022/06/14 08:26:22;;;;;;;4.77;4.37;;;17.90;74.70;;;;;;4961311;28;20534;-51
2022/06/14 08:29:10;;;;;;;3.97;3.63;;;18.00;74.70;;;;;;4970763;28;21006;-47
2022/06/14 08:32:00;;;;;;;6.43;5.13;;;18.20;75.60;;;;;;4970883;28;20181;-52
2022/06/14 08:34:34;;;;;;;6.43;4.40;;;18.30;72.90;;;;;;4968786;28;20424;-50
2022/06/14 08:37:08;;;;;;;4.77;4.37;;;18.40;71.70;;;;;;4961950;28;20463;-51
2022/06/14 08:39:39;;;;;;;4.67;4.30;;;18.50;72.50;;;;;;4970272;28;20863;-50
2022/06/14 08:42:17;;;;;;;5.60;4.70;;;18.50;71.00;;;;;;4971163;28;20428;-50
2022/06/14 08:44:46;;;;;;;4.77;3.90;;;18.50;69.80;;;;;;4969124;28;20536;-52
2022/06/14 08:47:31;;;;;;;4.43;4.13;;;18.50;71.70;;;;;;4962267;28;20482;-51
2022/06/14 08:50:38;;;;;;;5.00;4.17;;;18.80;69.30;;;;;;4970736;28;20774;-53
2022/06/14 08:53:18;;;;;;;4.63;4.30;;;19.30;71.00;;;;;;4977755;28;20518;-50
2022/06/14 08:56:19;;;;;;;5.43;4.93;;;19.40;68.90;;;;;;4964622;28;20428;-51
2022/06/14 08:59:10;;;;;;;5.03;4.63;;;19.50;68.50;;;;;;4970867;28;20434;-52
2022/06/14 09:01:58;;;;;;;6.13;5.10;;;19.40;66.60;;;;;;4969717;28;20519;-52
2022/06/14 09:05:07;;;;;;;5.20;4.67;;;19.40;66.20;;;;;;4979970;28;20804;-53
2022/06/14 09:07:38;;;;;;;5.77;5.20;;;19.30;67.60;;;;;;4958865;28;20576;-53
2022/06/14 09:10:10;;;;;;;4.57;4.27;;;19.20;68.80;;;;;;4977749;28;20451;-50
2022/06/14 09:12:41;;;;;;;5.00;4.60;;;19.20;68.40;;;;;;4957106;28;20428;-50
2022/06/14 09:15:26;;;;;;;5.30;4.80;;;19.30;69.10;;;;;;4960623;28;20421;-51
2022/06/14 09:18:35;;;;;;;5.60;5.10;;;19.80;67.10;;;;;;4956987;28;20500;-48
2022/06/14 09:21:04;;;;;;;5.10;4.70;;;20.40;66.70;;;;;;4969717;28;20417;-53
2022/06/14 09:24:04;;;;;;;5.30;4.80;;;20.70;64.70;;;;;;4969987;28;20436;-49
2022/06/14 09:26:43;;;;;;;5.63;5.10;;;20.60;65.50;;;;;;4970423;28;20406;-52
2022/06/14 09:29:11;;;;;;;4.40;4.10;;;20.90;63.80;;;;;;4993800;28;20432;-49
2022/06/14 09:31:55;;;;;;;6.10;4.67;;;20.80;63.30;;;;;;4970648;28;20421;-52
2022/06/14 09:35:02;;;;;;;5.10;4.80;;;20.90;61.50;;;;;;4966625;28;20446;-50
2022/06/14 09:38:09;;;;;;;4.97;4.57;;;20.80;59.80;;;;;;4954361;28;20503;-48
2022/06/14 09:41:17;;;;;;;5.80;4.83;;;21.30;62.70;;;;;;4966753;28;20437;-52
2022/06/14 09:44:01;;;;;;;5.13;4.70;;;22.30;58.20;;;;;;4976602;28;23319;-53
2022/06/14 09:46:48;;;;;;;5.40;5.00;;;23.40;53.60;;;;;;4969001;28;20413;-52
2022/06/14 09:49:35;;;;;;;6.10;5.40;;;23.40;50.40;;;;;;4966915;28;20458;-51
2022/06/14 09:52:20;;;;;;;5.77;5.37;;;23.10;50.20;;;;;;4969688;28;20483;-53
2022/06/14 09:54:49;;;;;;;5.47;4.97;;;22.60;49.60;;;;;;4963902;28;20444;-49
2022/06/14 09:57:48;;;;;;;6.87;5.20;;;22.50;50.90;;;;;;4976938;28;20484;-51
2022/06/14 10:00:32;;;;;;;5.60;5.20;;;22.20;49.70;;;;;;4961658;28;20518;-52
2022/06/14 10:03:23;;;;;;;5.20;4.90;;;22.40;50.40;;;;;;4978827;28;20530;-54
2022/06/14 10:06:07;;;;;;;6.00;5.50;;;22.70;51.10;;;;;;4949819;28;20414;-52
2022/06/14 10:08:47;;;;;;;5.20;4.77;;;22.80;50.70;;;;;;4954363;28;20465;-51
2022/06/14 10:11:41;;;;;;;5.23;4.83;;;22.70;50.10;;;;;;4967637;28;20930;-54
2022/06/14 10:14:28;;;;;;;5.30;4.83;;;23.20;49.40;;;;;;4965686;28;20783;-48
2022/06/14 10:17:22;;;;;;;4.83;4.53;;;23.90;47.80;;;;;;4974711;28;20436;-51
2022/06/14 10:20:39;;;;;;;5.37;5.07;;;24.10;44.70;;;;;;4995213;28;20996;-50
2022/06/14 10:23:37;;;;;;;4.77;4.40;;;23.30;44.50;;;;;;4988881;28;20957;-53
2022/06/14 10:29:11;;;;;;;4.33;4.03;;;23.60;42.80;;;;;;4968980;28;20571;-47
2022/06/14 10:32:20;;;;;;;4.67;4.27;;;24.60;40.80;;;;;;4964458;28;20443;-52
2022/06/14 10:35:16;;;;;;;4.80;4.50;;;25.10;38.20;;;;;;4958300;28;20435;-47
2022/06/14 10:37:47;;;;;;;5.07;4.70;;;25.60;37.70;;;;;;4962698;28;20451;-53
2022/06/14 10:40:40;;;;;;;5.27;4.97;;;25.50;35.50;;;;;;4957935;28;20449;-54
2022/06/14 10:43:08;;;;;;;5.37;4.97;;;24.90;35.10;;;;;;4959158;28;20436;-53
2022/06/14 10:45:47;;;;;;;5.30;4.90;;;24.90;38.70;;;;;;4977455;28;20447;-50
2022/06/14 10:48:31;;;;;;;4.73;4.43;;;24.90;38.40;;;;;;4950076;28;20488;-52
2022/06/14 10:51:04;;;;;;;5.73;5.23;;;25.00;39.70;;;;;;4956537;28;20496;-54
2022/06/14 10:53:36;;;;;;;5.47;5.20;;;25.20;38.50;;;;;;4970706;28;20445;-51
2022/06/14 10:56:15;;;;;;;5.60;5.13;;;25.20;37.10;;;;;;4964678;28;20448;-49
2022/06/14 10:59:03;;;;;;;5.57;5.27;;;25.50;37.70;;;;;;4957523;28;20543;-54
2022/06/14 11:01:56;;;;;;;5.33;5.00;;;26.30;36.70;;;;;;4958545;28;21349;-53
2022/06/14 11:04:33;;;;;;;5.17;4.80;;;26.50;35.50;;;;;;4955944;28;20427;-49
2022/06/14 11:06:59;;;;;;;5.47;5.10;;;26.30;35.10;;;;;;4954025;28;20462;-51
2022/06/14 11:09:49;;;;;;;5.50;5.10;;;26.50;34.70;;;;;;4953088;28;20479;-55
2022/06/14 11:12:30;;;;;;;4.70;4.40;;;27.00;35.30;;;;;;4952458;28;20169;-53
2022/06/14 11:15:10;;;;;;;4.97;4.60;;;27.70;31.50;;;;;;4953954;28;20492;-53
2022/06/14 11:17:42;;;;;;;5.20;4.77;;;27.30;30.10;;;;;;4952822;28;20825;-48
2022/06/14 11:20:18;;;;;;;5.37;5.07;;;26.70;31.50;;;;;;4956546;28;20799;-50
2022/06/14 11:22:52;;;;;;;4.70;4.40;;;26.40;32.00;;;;;;4963817;28;20949;-52
2022/06/14 11:25:32;;;;;;;5.27;4.87;;;26.50;32.00;;;;;;4971242;28;20922;-51
2022/06/14 11:28:17;;;;;;;5.50;5.17;;;26.50;30.70;;;;;;4960044;28;20947;-51
2022/06/14 11:30:53;;;;;;;5.03;4.70;;;26.30;32.20;;;;;;4960428;28;20851;-52
2022/06/14 11:33:31;;;;;;;5.37;4.93;;;25.90;33.00;;;;;;4969503;28;20463;-48
2022/06/14 11:36:26;;;;;;;5.80;5.17;;;25.60;33.00;;;;;;4969562;28;20437;-51
2022/06/14 11:39:19;;;;;;;6.47;5.87;;;25.70;33.20;;;;;;4969124;28;20447;-49
2022/06/14 11:41:48;;;;;;;5.23;4.83;;;25.40;32.50;;;;;;4971588;28;20514;-53
2022/06/14 11:44:22;;;;;;;4.90;4.63;;;25.20;34.50;;;;;;4963260;28;20970;-51
2022/06/14 11:47:21;;;;;;;5.10;4.70;;;25.90;32.00;;;;;;4971869;28;20411;-52
2022/06/14 11:50:12;;;;;;;5.20;4.80;;;26.60;30.00;;;;;;4969575;28;20510;-50
2022/06/14 11:52:53;;;;;;;4.20;3.80;;;27.30;30.00;;;;;;4976054;28;20474;-52
2022/06/14 11:55:41;;;;;;;6.30;4.97;;;28.00;27.40;;;;;;4970968;28;20505;-52
2022/06/14 11:58:37;;;;;;;4.63;3.97;;;28.60;27.60;;;;;;4967667;28;20512;-49
2022/06/14 12:01:20;;;;;;;4.60;4.20;;;28.40;27.90;;;;;;4971365;28;20416;-51
2022/06/14 12:04:03;;;;;;;4.47;4.20;;;28.20;28.80;;;;;;4968804;28;20432;-53
2022/06/14 12:06:53;;;;;;;4.77;4.40;;;27.70;28.80;;;;;;4971041;28;20444;-48
2022/06/14 12:09:56;;;;;;;4.87;4.60;;;28.20;28.20;;;;;;4975809;28;20444;-53
2022/06/14 12:12:43;;;;;;;4.70;4.30;;;27.40;28.10;;;;;;4970757;28;20432;-55
2022/06/14 12:15:21;;;;;;;4.73;4.43;;;27.40;29.00;;;;;;4964212;28;20579;-53
2022/06/14 12:17:52;;;;;;;8.23;5.13;;;28.30;28.80;;;;;;4963293;28;20413;-51
2022/06/14 12:20:24;;;;;;;4.73;4.50;;;28.20;26.20;;;;;;4966129;28;20504;-52
2022/06/14 12:23:01;;;;;;;5.33;5.03;;;27.60;27.20;;;;;;4963846;28;20431;-51
2022/06/14 12:28:45;;;;;;;4.87;4.40;;;27.10;28.60;;;;;;4956682;28;20466;-55
2022/06/14 12:31:24;;;;;;;4.97;4.50;;;27.50;30.00;;;;;;4971143;28;20427;-49
2022/06/14 12:33:56;;;;;;;5.43;4.90;;;27.70;29.40;;;;;;4964451;28;20432;-50
2022/06/14 12:36:36;;;;;;;4.80;4.50;;;27.50;29.10;;;;;;4970589;28;20440;-53
2022/06/14 12:39:10;;;;;;;5.17;4.80;;;27.70;28.80;;;;;;4965771;28;20989;-52
2022/06/14 12:41:45;;;;;;;5.00;4.70;;;28.10;28.30;;;;;;4970611;28;20469;-51
2022/06/14 12:44:47;;;;;;;4.40;4.00;;;29.00;26.90;;;;;;4958810;28;20436;-51
2022/06/14 12:48:00;;;;;;;5.00;4.63;;;29.70;25.60;;;;;;4960412;28;20471;-54
2022/06/14 12:50:32;;;;;;;5.23;4.73;;;31.00;24.50;;;;;;5004194;28;20441;-52
2022/06/14 12:53:05;;;;;;;5.10;4.77;;;31.60;22.80;;;;;;4965427;28;20467;-54
2022/06/14 12:55:39;;;;;;;4.70;4.30;;;31.00;23.50;;;;;;4970430;28;20472;-53
2022/06/14 12:58:30;;;;;;;5.33;4.93;;;30.50;23.70;;;;;;4985145;28;20495;-49
2022/06/14 13:01:19;;;;;;;4.50;4.20;;;29.30;24.60;;;;;;4962027;28;20834;-49
2022/06/14 13:03:59;;;;;;;4.73;4.23;;;29.30;25.50;;;;;;4970361;28;20440;-52
2022/06/14 13:06:33;;;;;;;5.50;5.00;;;29.60;25.20;;;;;;4968126;28;20546;-51
2022/06/14 13:09:30;;;;;;;4.60;4.30;;;30.10;23.60;;;;;;4967244;28;20567;-53
2022/06/14 13:12:01;;;;;;;5.07;4.63;;;29.80;24.20;;;;;;4961463;28;20488;-53
2022/06/14 13:14:35;;;;;;;5.40;5.00;;;30.10;23.80;;;;;;4964475;28;20435;-50
2022/06/14 13:17:08;;;;;;;5.53;5.10;;;30.10;24.20;;;;;;4967211;28;20491;-54
2022/06/14 13:19:52;;;;;;;5.23;4.83;;;30.70;22.90;;;;;;4967950;28;20532;-51
2022/06/14 13:22:34;;;;;;;4.27;3.93;;;29.90;23.10;;;;;;4969190;28;20416;-52
2022/06/14 13:25:17;;;;;;;5.17;4.50;;;29.70;23.80;;;;;;4967960;28;20519;-51
2022/06/14 13:27:57;;;;;;;4.30;4.00;;;29.00;23.80;;;;;;4964459;28;20472;-53
2022/06/14 13:30:58;;;;;;;4.50;4.20;;;29.10;24.20;;;;;;4968140;28;21018;-49
2022/06/14 13:33:28;;;;;;;4.87;4.57;;;29.10;23.50;;;;;;4968615;28;20443;-51
2022/06/14 13:36:01;;;;;;;4.67;4.37;;;28.20;25.40;;;;;;4969402;28;20416;-49
2022/06/14 13:38:47;;;;;;;5.20;4.37;;;28.20;26.30;;;;;;4966900;28;20474;-52
2022/06/14 13:41:24;;;;;;;5.00;4.60;;;29.00;24.60;;;;;;4970486;28;20451;-49
2022/06/14 13:44:02;;;;;;;4.23;3.93;;;29.70;24.40;;;;;;4963268;28;20424;-51
2022/06/14 13:46:32;;;;;;;4.67;4.23;;;30.20;23.70;;;;;;4969853;28;20431;-56
2022/06/14 13:49:30;;;;;;;4.60;4.30;;;30.90;23.00;;;;;;4968919;28;20539;-50
2022/06/14 13:52:02;;;;;;;4.77;4.47;;;31.60;21.40;;;;;;4957867;28;20486;-48
2022/06/14 13:54:45;;;;;;;4.80;4.40;;;30.80;20.50;;;;;;4968249;28;20451;-50
2022/06/14 13:57:30;;;;;;;4.33;4.03;;;29.30;22.30;;;;;;4969322;28;20596;-52
2022/06/14 14:00:17;;;;;;;4.40;4.10;;;29.30;23.70;;;;;;4961527;28;20447;-54
2022/06/14 14:02:58;;;;;;;4.53;4.23;;;29.70;23.20;;;;;;4959331;28;20463;-51
2022/06/14 14:05:30;;;;;;;4.23;3.87;;;29.80;22.40;;;;;;4969643;28;20423;-54